Time;durP1;ratioP1;P1;durP2;ratioP2;P2;SDS_P1;SDS_P2;PMS_P1;PMS_P2;Temp;Humidity;BMP_temperature;BMP_pressure;BME280_temperature;BME280_humidity;BME280_pressure;Samples;Min_cycle;Max_cycle;Signal;HPM_P1;HPM_P2
2023/07/18 04:22:33;;;;;;;2.30;1.38;;;;;;;13.96;100.00;100746.50;5090595;27;20397;-68
2023/07/18 04:24:58;;;;;;;5.05;1.55;;;;;;;14.05;100.00;100749.91;5106565;28;20476;-68
2023/07/18 04:27:26;;;;;;;2.67;1.63;;;;;;;13.91;100.00;100751.56;5090042;28;20482;-68
2023/07/18 04:29:53;;;;;;;1.58;1.10;;;;;;;13.77;100.00;100747.84;5080924;28;20044;-68
2023/07/18 04:32:19;;;;;;;3.08;1.60;;;;;;;13.77;100.00;100741.66;5089323;28;20056;-69
2023/07/18 04:34:47;;;;;;;2.92;1.40;;;;;;;13.93;100.00;100746.00;5088180;28;20093;-69
2023/07/18 04:37:12;;;;;;;2.80;1.73;;;;;;;13.90;100.00;100746.38;5099848;28;20565;-69
2023/07/18 04:39:38;;;;;;;2.72;1.55;;;;;;;13.87;100.00;100736.03;5108844;28;20040;-68
2023/07/18 04:42:03;;;;;;;10.32;6.22;;;;;;;14.01;100.00;100740.56;5108197;28;20114;-69
2023/07/18 04:44:30;;;;;;;8.40;3.42;;;;;;;14.11;100.00;100738.44;5109290;28;20135;-69
2023/07/18 04:46:55;;;;;;;12.13;6.97;;;;;;;14.24;100.00;100730.59;5109302;28;20036;-68
2023/07/18 04:49:22;;;;;;;6.50;3.42;;;;;;;14.33;100.00;100729.47;5109176;28;20500;-69
2023/07/18 04:51:48;;;;;;;4.75;2.72;;;;;;;14.44;100.00;100725.50;5107734;28;20050;-69
2023/07/18 04:54:13;;;;;;;1.92;1.30;;;;;;;14.56;100.00;100725.88;5089026;28;20048;-55
2023/07/18 04:56:39;;;;;;;3.42;1.80;;;;;;;14.64;100.00;100717.72;5088908;28;20093;-53
2023/07/18 04:59:05;;;;;;;4.45;1.90;;;;;;;14.72;100.00;100720.28;5088557;28;20051;-55
2023/07/18 05:01:31;;;;;;;2.42;1.40;;;;;;;14.79;100.00;100723.88;5088796;28;20059;-53
2023/07/18 05:03:58;;;;;;;3.08;1.48;;;;;;;14.79;100.00;100718.50;5088838;28;20525;-55
2023/07/18 05:06:24;;;;;;;1.57;1.27;;;;;;;14.81;100.00;100718.34;5088784;28;20036;-56
2023/07/18 05:08:49;;;;;;;3.58;1.30;;;;;;;14.84;100.00;100721.47;5100882;28;20195;-56
2023/07/18 05:11:14;;;;;;;1.98;1.20;;;;;;;14.85;100.00;100715.09;5109092;28;20036;-52
2023/07/18 05:13:40;;;;;;;2.33;1.15;;;;;;;14.93;100.00;100716.81;5109012;28;20051;-64
2023/07/18 05:16:05;;;;;;;2.75;1.35;;;;;;;14.99;99.26;100721.41;5108257;28;20062;-64
2023/07/18 05:18:30;;;;;;;4.22;1.35;;;;;;;15.06;97.93;100718.81;5107603;28;20032;-65
2023/07/18 05:20:56;;;;;;;2.10;1.20;;;;;;;15.06;97.26;100705.38;5108513;28;20134;-64
2023/07/18 05:23:22;;;;;;;4.47;1.50;;;;;;;15.13;96.73;100707.13;5108890;28;20085;-64
2023/07/18 05:25:48;;;;;;;2.65;1.42;;;;;;;15.25;96.20;100720.00;5107537;28;20530;-64
2023/07/18 05:28:13;;;;;;;2.45;1.10;;;;;;;15.30;95.84;100707.69;5108512;28;20047;-64
2023/07/18 05:30:39;;;;;;;2.05;1.20;;;;;;;15.39;95.84;100709.22;5108458;28;20032;-64
2023/07/18 05:33:04;;;;;;;2.20;1.25;;;;;;;15.43;95.96;100709.66;5099618;28;20085;-64
2023/07/18 05:35:30;;;;;;;2.85;1.40;;;;;;;15.47;95.67;100706.41;5094951;28;20058;-63
2023/07/18 05:37:56;;;;;;;2.97;1.60;;;;;;;15.58;94.94;100702.34;5094921;28;20028;-64
2023/07/18 05:40:21;;;;;;;4.63;1.38;;;;;;;15.65;94.16;100694.38;5094507;28;20044;-64
2023/07/18 05:42:46;;;;;;;3.35;1.30;;;;;;;15.70;93.17;100691.94;5094681;28;20043;-64
2023/07/18 05:45:12;;;;;;;3.45;1.35;;;;;;;15.79;93.03;100687.25;5094710;28;20050;-64
2023/07/18 05:47:38;;;;;;;1.80;1.05;;;;;;;15.86;92.77;100680.06;5095033;28;20039;-64
2023/07/18 05:50:04;;;;;;;1.65;1.17;;;;;;;15.99;91.46;100690.91;5094343;28;20397;-62
2023/07/18 05:52:30;;;;;;;1.58;1.08;;;;;;;16.13;89.58;100683.72;5094568;28;20047;-62
2023/07/18 05:54:55;;;;;;;2.40;1.30;;;;;;;16.26;87.30;100676.56;5094551;28;20032;-62
2023/07/18 05:57:21;;;;;;;1.83;1.17;;;;;;;16.42;86.61;100671.84;5093203;28;20048;-62
2023/07/18 05:59:46;;;;;;;1.85;1.08;;;;;;;16.59;85.90;100685.78;5094343;28;20031;-60
2023/07/18 06:02:12;;;;;;;3.28;1.58;;;;;;;16.69;84.11;100683.53;5085154;28;20538;-62
2023/07/18 06:04:37;;;;;;;2.42;1.25;;;;;;;16.71;84.32;100668.06;5054198;28;20131;-62
2023/07/18 06:07:04;;;;;;;1.77;1.10;;;;;;;16.85;84.87;100675.13;5054087;28;20048;-63
2023/07/18 06:09:29;;;;;;;3.10;1.15;;;;;;;16.96;84.68;100673.72;5053823;28;20040;-63
2023/07/18 06:11:55;;;;;;;2.05;1.20;;;;;;;17.08;83.03;100675.59;5053906;28;20110;-63
2023/07/18 06:14:20;;;;;;;3.03;1.42;;;;;;;17.23;82.37;100671.88;5053970;28;20043;-63
2023/07/18 06:16:46;;;;;;;2.92;1.13;;;;;;;17.29;81.58;100665.66;5053869;28;20056;-63
2023/07/18 06:19:12;;;;;;;5.18;1.10;;;;;;;17.35;81.85;100665.66;5052879;28;20047;-64
2023/07/18 06:21:38;;;;;;;1.65;1.17;;;;;;;17.40;82.35;100667.72;5052210;28;20043;-64
2023/07/18 06:24:05;;;;;;;2.97;1.33;;;;;;;17.49;81.00;100661.09;5052437;28;20033;-63
2023/07/18 06:26:30;;;;;;;2.67;1.30;;;;;;;17.53;80.78;100669.56;5056174;28;20489;-62
2023/07/18 06:28:56;;;;;;;1.35;1.17;;;;;;;17.62;81.38;100671.84;5072399;28;20040;-63
2023/07/18 06:31:22;;;;;;;1.85;1.10;;;;;;;17.73;78.91;100666.88;5073607;28;20048;-63
2023/07/18 06:33:48;;;;;;;4.00;1.30;;;;;;;17.82;79.38;100668.34;5073607;28;20493;-62
2023/07/18 06:36:13;;;;;;;1.80;1.15;;;;;;;17.97;80.28;100670.78;5073277;28;20032;-62
2023/07/18 06:38:39;;;;;;;1.55;1.10;;;;;;;18.00;78.89;100673.06;5073278;28;20049;-63
2023/07/18 06:41:05;;;;;;;2.38;1.35;;;;;;;18.05;78.74;100668.69;5073314;28;20033;-63
2023/07/18 06:43:32;;;;;;;1.52;1.08;;;;;;;18.14;77.32;100667.41;5072998;28;20032;-62
2023/07/18 06:45:58;;;;;;;2.58;1.35;;;;;;;18.27;76.03;100654.94;5072739;28;20410;-63
2023/07/18 06:48:24;;;;;;;3.53;1.35;;;;;;;18.32;76.76;100649.69;5073117;28;20029;-63
2023/07/18 06:50:52;;;;;;;2.10;1.20;;;;;;;18.39;75.66;100650.53;5073231;28;20032;-63
2023/07/18 06:53:19;;;;;;;2.60;1.17;;;;;;;18.50;75.38;100640.91;5073285;28;20031;-62
2023/07/18 06:55:46;;;;;;;;;;;;;;;18.64;73.79;100635.22;5073466;28;20048;-63
2023/07/18 06:58:12;;;;;;;1.75;1.15;;;;;;;18.70;71.26;100634.38;5073161;28;19920;-63
2023/07/18 07:00:38;;;;;;;5.05;1.30;;;;;;;18.85;71.09;100631.41;5072829;28;20036;-63
2023/07/18 07:03:04;;;;;;;3.25;1.42;;;;;;;19.01;70.03;100637.31;5073007;28;20123;-63
2023/07/18 07:05:29;;;;;;;2.47;1.27;;;;;;;19.11;69.66;100633.09;5072892;28;20158;-64
2023/07/18 07:07:55;;;;;;;3.38;1.42;;;;;;;19.17;68.67;100625.94;5072980;28;20079;-62
2023/07/18 07:10:20;;;;;;;2.03;1.17;;;;;;;19.25;68.92;100628.41;5072473;28;20133;-63
2023/07/18 07:12:46;;;;;;;5.18;1.65;;;;;;;19.36;69.83;100634.94;5072876;28;20760;-63
2023/07/18 07:15:12;;;;;;;2.70;1.38;;;;;;;19.49;68.38;100630.22;5072949;28;20393;-63
2023/07/18 07:17:38;;;;;;;2.17;1.20;;;;;;;19.55;68.94;100616.88;5072767;28;20032;-63
2023/07/18 07:20:06;;;;;;;2.78;1.25;;;;;;;19.68;68.82;100617.59;5072416;28;20109;-62
2023/07/18 07:22:31;;;;;;;2.15;1.30;;;;;;;19.78;68.13;100619.81;5071381;28;20536;-62
2023/07/18 07:24:57;;;;;;;2.53;1.60;;;;;;;19.91;67.56;100616.94;5072545;28;20040;-62
2023/07/18 07:27:23;;;;;;;2.80;1.40;;;;;;;20.00;67.17;100607.47;5072450;28;20032;-62
2023/07/18 07:29:49;;;;;;;2.30;1.30;;;;;;;20.10;67.36;100609.66;5072232;28;20051;-63
2023/07/18 07:32:15;;;;;;;3.63;1.65;;;;;;;20.13;66.60;100603.78;5072438;28;20036;-63
2023/07/18 07:34:41;;;;;;;4.65;1.67;;;;;;;20.22;65.79;100597.03;5072602;28;20037;-64
2023/07/18 07:37:08;;;;;;;3.75;1.30;;;;;;;20.37;66.69;100601.19;5072404;28;20127;-62
2023/07/18 07:39:34;;;;;;;2.93;1.47;;;;;;;20.47;65.55;100598.78;5072033;28;20452;-62
2023/07/18 07:42:00;;;;;;;4.05;1.40;;;;;;;20.53;66.74;100596.00;5072418;28;20282;-62
2023/07/18 07:44:26;;;;;;;3.50;1.55;;;;;;;20.71;65.14;100587.00;5071094;28;20520;-63
2023/07/18 07:46:52;;;;;;;2.40;1.45;;;;;;;20.81;64.11;100591.84;5072260;28;20080;-63
2023/07/18 07:49:17;;;;;;;3.63;1.60;;;;;;;20.94;64.92;100580.00;5072092;28;20041;-60
2023/07/18 07:51:42;;;;;;;3.03;1.70;;;;;;;21.09;62.74;100580.34;5072108;28;20116;-63
2023/07/18 07:54:08;;;;;;;2.63;1.77;;;;;;;21.21;61.08;100570.34;5072146;28;20473;-63
2023/07/18 07:56:33;;;;;;;3.17;1.85;;;;;;;21.22;61.00;100573.88;5072268;28;20028;-63
2023/07/18 07:58:58;;;;;;;2.50;1.60;;;;;;;21.34;61.41;100572.84;5072661;28;20127;-63
2023/07/18 08:01:24;;;;;;;1.63;1.25;;;;;;;21.42;61.18;100574.38;5072595;28;20044;-62
2023/07/18 08:03:49;;;;;;;5.85;1.83;;;;;;;21.49;59.15;100571.53;5072233;28;20085;-62
2023/07/18 08:06:15;;;;;;;3.88;1.58;;;;;;;21.61;60.53;100573.19;5072413;28;20063;-63
2023/07/18 08:08:40;;;;;;;4.03;1.77;;;;;;;21.68;59.05;100581.19;5071684;28;20029;-63
2023/07/18 08:11:05;;;;;;;3.53;1.83;;;;;;;21.72;57.73;100568.81;5071960;28;20503;-64
2023/07/18 08:13:31;;;;;;;5.65;1.65;;;;;;;21.81;58.59;100571.97;5071973;28;20047;-62
2023/07/18 08:15:56;;;;;;;5.07;1.55;;;;;;;21.90;58.96;100570.50;5071954;28;20042;-63
2023/07/18 08:18:22;;;;;;;3.92;1.50;;;;;;;21.97;57.74;100557.63;5071723;28;20048;-63
2023/07/18 08:20:47;;;;;;;3.80;1.65;;;;;;;22.08;57.00;100555.97;5071854;28;20033;-62
2023/07/18 08:23:14;;;;;;;3.25;1.70;;;;;;;22.31;56.51;100549.66;5071781;28;20045;-64
2023/07/18 08:25:43;;;;;;;4.32;1.67;;;;;;;22.47;56.78;100554.28;5071745;28;20058;-63
2023/07/18 08:28:09;;;;;;;2.97;1.58;;;;;;;22.69;55.60;100552.53;5071722;28;20036;-64
2023/07/18 08:30:35;;;;;;;2.33;1.70;;;;;;;22.83;54.75;100549.47;5071412;28;20099;-63
2023/07/18 08:33:00;;;;;;;3.70;1.77;;;;;;;22.83;51.72;100542.16;5071766;28;20066;-63
2023/07/18 08:35:25;;;;;;;4.50;1.65;;;;;;;23.01;52.58;100550.06;5071676;28;20044;-63
2023/07/18 08:37:51;;;;;;;4.95;1.92;;;;;;;23.23;51.87;100543.88;5071624;28;20043;-63
2023/07/18 08:40:17;;;;;;;2.35;1.45;;;;;;;23.22;51.18;100543.06;5071464;28;20032;-62
2023/07/18 08:42:42;;;;;;;3.47;1.90;;;;;;;23.22;51.42;100534.91;5071791;28;20146;-63
2023/07/18 08:45:13;;;;;;;5.57;2.15;;;;;;;23.30;50.87;100533.66;5071574;28;20074;-63
2023/07/18 08:47:40;;;;;;;4.88;1.38;;;;;;;23.41;51.03;100518.28;5071627;28;20046;-63
2023/07/18 08:50:09;;;;;;;2.75;1.85;;;;;;;23.58;50.07;100520.97;5071302;28;20035;-63
2023/07/18 08:52:36;;;;;;;6.18;1.98;;;;;;;23.70;48.53;100524.44;5071483;28;20039;-63
2023/07/18 08:55:03;;;;;;;7.00;2.25;;;;;;;23.84;48.24;100509.34;5071706;28;20051;-63
2023/07/18 08:57:30;;;;;;;3.83;1.80;;;;;;;24.04;48.13;100515.03;5071438;28;20082;-62
2023/07/18 08:59:59;;;;;;;4.07;1.55;;;;;;;23.95;46.99;100502.97;5071366;28;20451;-62
2023/07/18 09:02:24;;;;;;;4.13;2.05;;;;;;;24.13;47.62;100501.00;5071413;28;20033;-63
2023/07/18 09:04:50;;;;;;;7.60;1.98;;;;;;;24.19;46.67;100499.94;5071321;28;20048;-63
2023/07/18 09:07:19;;;;;;;6.15;1.95;;;;;;;24.46;47.45;100503.50;5071646;28;20078;-63
2023/07/18 09:09:46;;;;;;;4.88;1.88;;;;;;;24.70;46.30;100503.97;5073702;28;20067;-62
2023/07/18 09:12:13;;;;;;;3.95;1.50;;;;;;;24.66;45.55;100496.59;5075146;28;20056;-63
2023/07/18 09:14:39;;;;;;;5.88;2.20;;;;;;;24.80;45.79;100497.78;5075113;28;20028;-63
2023/07/18 09:17:06;;;;;;;3.03;1.70;;;;;;;25.03;45.61;100496.56;5074943;28;20378;-62
2023/07/18 09:19:43;;;;;;;7.97;1.83;;;;;;;25.26;44.52;100500.84;5074609;28;20041;-63
2023/07/18 09:22:12;;;;;;;7.43;1.87;;;;;;;25.32;43.84;100489.69;5074936;28;20041;-63
2023/07/18 09:24:39;;;;;;;3.38;1.70;;;;;;;25.40;42.97;100486.47;5074934;28;20097;-64
2023/07/18 09:27:16;;;;;;;4.63;2.00;;;;;;;25.66;44.25;100492.03;5074790;28;20077;-63
2023/07/18 09:29:46;;;;;;;5.82;2.17;;;;;;;25.82;42.87;100477.38;5074599;28;20101;-63
2023/07/18 09:32:19;;;;;;;3.30;1.85;;;;;;;25.94;42.38;100497.03;5074695;28;20504;-64
2023/07/18 09:34:55;;;;;;;6.95;2.05;;;;;;;26.25;40.55;100527.16;5074708;28;20111;-64
2023/07/18 09:37:21;;;;;;;3.67;1.63;;;;;;;26.63;42.30;100534.03;5075002;28;20036;-64
2023/07/18 09:39:47;;;;;;;5.32;1.90;;;;;;;26.79;41.02;100527.47;5074458;28;20035;-63
2023/07/18 09:42:16;;;;;;;4.33;1.80;;;;;;;27.10;42.72;100538.41;5074531;28;20111;-64
2023/07/18 09:44:42;;;;;;;3.30;1.77;;;;;;;27.07;40.61;100533.50;5074774;28;20622;-63
2023/07/18 09:47:08;;;;;;;4.30;1.88;;;;;;;27.03;40.76;100541.41;5074559;28;20382;-63
2023/07/18 09:49:36;;;;;;;5.38;1.83;;;;;;;26.85;40.37;100557.53;5074022;28;20090;-63
2023/07/18 09:52:04;;;;;;;2.97;1.67;;;;;;;26.66;41.47;100558.06;5074334;28;20037;-63
2023/07/18 09:54:30;;;;;;;6.38;1.80;;;;;;;26.46;41.60;100544.41;5074426;28;20047;-64
2023/07/18 09:57:01;;;;;;;5.35;1.63;;;;;;;26.36;43.11;100538.91;5074342;28;20071;-63
2023/07/18 09:59:28;;;;;;;3.33;1.65;;;;;;;26.22;42.21;100533.16;5073980;28;20060;-63
2023/07/18 10:01:55;;;;;;;6.28;1.92;;;;;;;26.09;43.33;100514.56;5074370;28;20081;-62
2023/07/18 10:04:21;;;;;;;4.95;2.03;;;;;;;26.16;42.34;100499.56;5074265;28;20044;-63
2023/07/18 10:06:47;;;;;;;4.05;1.77;;;;;;;25.96;42.33;100458.59;5074148;28;20029;-64
2023/07/18 10:09:13;;;;;;;4.43;1.92;;;;;;;25.91;41.79;100456.66;5073979;28;20078;-63
2023/07/18 10:11:57;;;;;;;5.40;1.73;;;;;;;25.96;42.14;100443.03;5073935;28;20107;-63
2023/07/18 10:14:26;;;;;;;4.88;2.10;;;;;;;25.91;42.32;100404.00;5070466;28;20040;-64
2023/07/18 10:16:58;;;;;;;6.28;2.13;;;;;;;25.99;42.84;100378.91;5062219;28;20131;-63
2023/07/18 10:19:24;;;;;;;4.10;1.90;;;;;;;25.88;42.00;100358.97;5061529;28;20025;-63
2023/07/18 10:21:56;;;;;;;2.90;1.60;;;;;;;26.16;42.74;100327.59;5046950;28;20025;-64
2023/07/18 10:24:24;;;;;;;2.67;1.67;;;;;;;26.24;41.52;100320.75;5041651;28;20056;-64
2023/07/18 10:26:59;;;;;;;2.65;1.67;;;;;;;26.40;41.88;100351.59;5061183;28;20044;-62
2023/07/18 10:29:31;;;;;;;2.90;1.65;;;;;;;26.16;41.52;100335.78;5041897;28;20049;-62
2023/07/18 10:31:59;;;;;;;3.42;1.70;;;;;;;26.28;42.00;100338.25;5053646;28;20029;-63
2023/07/18 10:34:25;;;;;;;4.43;1.60;;;;;;;26.20;41.54;100325.94;5053579;28;20045;-63
2023/07/18 10:36:59;;;;;;;5.22;1.92;;;;;;;26.30;41.69;100332.50;5053698;28;20033;-63
2023/07/18 10:39:38;;;;;;;5.00;2.03;;;;;;;26.34;41.57;100383.53;5053331;28;20045;-63
2023/07/18 10:42:08;;;;;;;4.38;2.20;;;;;;;26.72;42.31;100441.41;5053675;28;20060;-63
2023/07/18 10:44:36;;;;;;;2.75;1.70;;;;;;;27.00;40.53;100478.28;5053524;28;20174;-63
2023/07/18 10:47:14;;;;;;;3.35;1.73;;;;;;;26.86;38.83;100479.91;5053439;28;20041;-63
2023/07/18 10:49:39;;;;;;;3.05;1.58;;;;;;;26.85;39.69;100489.22;5052994;28;20033;-63
2023/07/18 10:52:05;;;;;;;5.97;1.98;;;;;;;26.59;41.56;100478.31;5053337;28;20103;-63
2023/07/18 10:54:30;;;;;;;4.63;2.10;;;;;;;26.38;42.74;100449.34;5053441;28;20040;-64
2023/07/18 10:56:56;;;;;;;4.78;1.95;;;;;;;26.10;41.01;100448.78;5053139;28;20037;-63
2023/07/18 10:59:22;;;;;;;4.68;1.83;;;;;;;26.04;41.73;100487.25;5052909;28;20037;-63
2023/07/18 11:01:47;;;;;;;8.13;1.75;;;;;;;26.05;41.45;100513.47;5053240;28;20039;-63
2023/07/18 11:04:13;;;;;;;7.40;2.30;;;;;;;26.03;42.21;100508.28;5053091;28;20431;-63
2023/07/18 11:06:48;;;;;;;4.15;1.67;;;;;;;25.97;43.47;100504.72;5052907;28;20394;-63
2023/07/18 11:09:14;;;;;;;4.75;2.15;;;;;;;25.97;41.81;100507.44;5052830;28;20664;-62
2023/07/18 11:11:40;;;;;;;3.42;1.90;;;;;;;25.81;43.86;100485.81;5052913;28;20151;-63
2023/07/18 11:14:06;;;;;;;3.88;1.80;;;;;;;25.71;42.54;100472.94;5051744;28;20410;-63
2023/07/18 11:16:31;;;;;;;3.95;1.73;;;;;;;25.57;42.89;100478.09;5053027;28;20044;-62
2023/07/18 11:18:59;;;;;;;8.07;1.77;;;;;;;25.55;42.19;100502.06;5052517;28;20037;-64
2023/07/18 11:21:26;;;;;;;7.30;1.80;;;;;;;25.60;42.65;100482.19;5052724;28;20517;-64
2023/07/18 11:23:52;;;;;;;3.75;1.70;;;;;;;25.54;43.66;100464.97;5052651;28;20132;-63
2023/07/18 11:26:18;;;;;;;4.57;1.75;;;;;;;25.54;44.37;100445.88;5052690;28;20037;-63
2023/07/18 11:28:48;;;;;;;2.88;1.70;;;;;;;25.73;44.28;100437.25;5052411;28;20068;-64
2023/07/18 11:31:28;;;;;;;4.20;2.13;;;;;;;25.81;43.93;100426.63;5052142;28;20031;-63
2023/07/18 11:33:55;;;;;;;3.92;1.73;;;;;;;26.06;43.07;100397.72;5052598;28;20072;-63
2023/07/18 11:36:24;;;;;;;3.97;1.88;;;;;;;26.40;43.06;100395.28;5056571;28;20116;-63
2023/07/18 11:38:50;;;;;;;5.63;1.92;;;;;;;26.95;42.03;100385.38;5061821;28;20059;-63
2023/07/18 11:41:32;;;;;;;4.40;2.20;;;;;;;27.25;40.10;100381.72;5061643;28;20124;-63
2023/07/18 11:43:58;;;;;;;2.75;1.70;;;;;;;27.39;40.32;100371.00;5063328;28;20048;-63
2023/07/18 11:46:47;;;;;;;5.97;1.83;;;;;;;27.72;39.58;100364.00;5061347;28;20040;-63
2023/07/18 11:49:12;;;;;;;5.60;1.52;;;;;;;27.64;38.81;100359.06;5046733;28;20127;-62
2023/07/18 11:51:42;;;;;;;4.25;1.90;;;;;;;27.82;39.50;100329.13;5043341;28;20132;-63
2023/07/18 11:54:08;;;;;;;4.50;1.85;;;;;;;27.44;39.48;100302.56;5063600;28;20030;-63
2023/07/18 11:56:37;;;;;;;3.80;1.58;;;;;;;27.81;39.51;100285.66;5072273;28;20120;-63
2023/07/18 11:59:03;;;;;;;4.60;1.83;;;;;;;27.88;39.40;100282.56;5071893;28;20028;-63
2023/07/18 12:01:28;;;;;;;6.15;2.05;;;;;;;27.85;39.06;100276.59;5072141;28;20139;-63
2023/07/18 12:03:54;;;;;;;3.50;2.05;;;;;;;27.80;39.38;100273.06;5072092;28;20033;-63
2023/07/18 12:06:21;;;;;;;3.42;2.10;;;;;;;27.91;38.90;100273.78;5072083;28;20032;-63
2023/07/18 12:08:48;;;;;;;3.08;1.88;;;;;;;27.91;39.52;100260.94;5070607;28;20047;-63
2023/07/18 12:11:13;;;;;;;4.45;1.75;;;;;;;28.15;39.39;100263.69;5070928;28;20040;-63
2023/07/18 12:13:39;;;;;;;3.58;2.10;;;;;;;28.16;39.13;100259.03;5072138;28;20029;-63
2023/07/18 12:16:07;;;;;;;3.50;1.63;;;;;;;28.59;38.58;100262.69;5071934;28;20102;-64
2023/07/18 12:18:33;;;;;;;4.82;1.67;;;;;;;28.91;37.67;100257.38;5072468;28;20033;-64
2023/07/18 12:20:59;;;;;;;5.28;2.25;;;;;;;29.16;37.82;100260.88;5071869;28;20055;-64
2023/07/18 12:23:25;;;;;;;3.97;2.03;;;;;;;29.16;35.70;100261.69;5071930;28;20051;-64
2023/07/18 12:25:51;;;;;;;5.60;1.90;;;;;;;30.14;36.37;100259.03;5067549;28;20029;-63
2023/07/18 12:28:16;;;;;;;3.03;1.63;;;;;;;30.69;35.00;100269.25;5058974;28;20538;-64
2023/07/18 12:30:42;;;;;;;4.10;1.70;;;;;;;30.75;34.36;100270.78;5062310;28;20052;-64
2023/07/18 12:33:08;;;;;;;2.70;1.67;;;;;;;31.05;34.25;100263.81;5061085;28;20033;-64
2023/07/18 12:35:33;;;;;;;3.63;1.70;;;;;;;30.95;34.93;100261.28;5060785;28;20070;-63
2023/07/18 12:37:59;;;;;;;5.00;1.92;;;;;;;30.99;34.23;100265.84;5062490;28;20413;-62
2023/07/18 12:40:24;;;;;;;5.33;2.23;;;;;;;30.99;34.23;100267.78;5062008;28;20497;-63
2023/07/18 12:42:51;;;;;;;3.00;1.60;;;;;;;30.98;34.01;100266.16;5063355;28;20250;-62
2023/07/18 12:45:16;;;;;;;3.17;1.73;;;;;;;31.37;34.52;100262.03;5063474;28;20052;-62
2023/07/18 12:47:42;;;;;;;3.53;1.90;;;;;;;31.64;32.89;100255.56;5069898;28;20494;-63
2023/07/18 12:50:08;;;;;;;3.20;1.87;;;;;;;31.40;32.22;100251.19;5075413;28;20049;-62
2023/07/18 12:52:34;;;;;;;4.27;2.13;;;;;;;30.34;32.97;100241.34;5075640;28;20036;-63
2023/07/18 12:54:59;;;;;;;3.60;1.80;;;;;;;30.09;33.12;100225.34;5075662;28;20109;-62
2023/07/18 12:57:26;;;;;;;5.23;2.03;;;;;;;30.25;33.76;100218.44;5075448;28;20108;-62
2023/07/18 12:59:52;;;;;;;3.25;1.85;;;;;;;30.82;33.77;100201.63;5063606;28;20040;-63
2023/07/18 13:02:18;;;;;;;4.93;2.17;;;;;;;31.11;33.06;100206.75;5055365;28;20041;-63
2023/07/18 13:04:43;;;;;;;2.93;2.00;;;;;;;31.42;33.67;100198.59;5055470;28;20033;-63
2023/07/18 13:07:09;;;;;;;2.97;1.60;;;;;;;31.56;33.80;100197.41;5055444;28;20033;-63
2023/07/18 13:09:34;;;;;;;3.53;1.87;;;;;;;32.03;33.30;100192.31;5054959;28;20036;-63
2023/07/18 13:12:00;;;;;;;2.97;1.87;;;;;;;32.07;33.06;100192.47;5055288;28;20128;-62
2023/07/18 13:14:25;;;;;;;3.40;2.40;;;;;;;32.37;31.58;100194.41;5055274;28;20041;-63
2023/07/18 13:16:51;;;;;;;5.23;2.93;;;;;;;32.63;32.06;100191.72;5055064;28;20534;-63
2023/07/18 13:19:16;;;;;;;3.33;1.60;;;;;;;32.89;31.57;100194.53;5054930;28;20094;-64
2023/07/18 13:21:42;;;;;;;7.03;2.97;;;;;;;32.72;32.33;100196.41;5054978;28;20033;-64
2023/07/18 13:24:08;;;;;;;4.13;2.17;;;;;;;32.89;30.76;100208.31;5055074;28;20147;-63
2023/07/18 13:26:33;;;;;;;4.03;2.13;;;;;;;31.88;31.62;100206.50;5055087;28;20523;-63
2023/07/18 13:28:59;;;;;;;5.47;2.20;;;;;;;31.28;33.51;100199.47;5054588;28;20127;-63
2023/07/18 13:31:25;;;;;;;4.82;2.45;;;;;;;30.77;34.12;100194.31;5054834;28;20068;-63
2023/07/18 13:33:50;;;;;;;4.40;1.90;;;;;;;29.93;34.78;100186.34;5054793;28;20045;-63
2023/07/18 13:36:16;;;;;;;4.80;2.13;;;;;;;30.13;36.35;100182.47;5054759;28;20500;-63
2023/07/18 13:38:41;;;;;;;4.80;2.50;;;;;;;30.17;35.66;100180.72;5054527;28;20037;-63
2023/07/18 13:41:07;;;;;;;5.03;2.28;;;;;;;30.16;36.19;100181.84;5054791;28;20444;-63
2023/07/18 13:43:36;;;;;;;6.13;2.25;;;;;;;30.04;35.59;100176.00;5054757;28;20067;-63
2023/07/18 13:46:02;;;;;;;3.58;2.25;;;;;;;30.16;34.90;100177.16;5054499;28;20036;-63
2023/07/18 13:48:29;;;;;;;7.43;2.30;;;;;;;29.94;35.94;100177.03;5054292;28;20672;-62
2023/07/18 13:50:54;;;;;;;;;;;;;;;30.05;36.31;100191.34;5054939;28;20091;-62
2023/07/18 13:53:20;;;;;;;4.63;2.40;;;;;;;30.24;35.75;100192.91;5054055;28;20336;-62
2023/07/18 13:55:46;;;;;;;5.90;2.55;;;;;;;30.04;35.04;100187.78;5054471;28;20045;-62
2023/07/18 13:58:11;;;;;;;5.03;2.38;;;;;;;30.05;35.84;100191.34;5054407;28;20048;-62
2023/07/18 14:00:37;;;;;;;5.20;2.33;;;;;;;30.12;35.62;100195.34;5054036;28;20044;-63
2023/07/18 14:03:02;;;;;;;5.65;2.92;;;;;;;30.04;37.93;100196.03;5054207;28;20128;-61
2023/07/18 14:05:28;;;;;;;4.43;2.20;;;;;;;30.13;36.60;100185.19;5054502;28;20127;-62
2023/07/18 14:07:53;;;;;;;4.32;2.38;;;;;;;29.87;35.83;100177.41;5054280;28;20045;-62
2023/07/18 14:10:19;;;;;;;6.30;2.25;;;;;;;29.88;36.91;100187.28;5053965;28;20040;-62
2023/07/18 14:12:45;;;;;;;5.10;2.15;;;;;;;29.56;37.68;100179.09;5054181;28;20045;-62
2023/07/18 14:15:10;;;;;;;4.90;2.40;;;;;;;29.72;37.12;100180.44;5054209;28;20048;-63
2023/07/18 14:17:36;;;;;;;5.63;2.50;;;;;;;29.62;36.89;100166.91;5054119;28;20037;-63
2023/07/18 14:20:01;;;;;;;5.30;2.15;;;;;;;29.82;36.75;100166.53;5053717;28;20425;-62
2023/07/18 14:22:27;;;;;;;7.90;2.97;;;;;;;29.92;36.21;100157.28;5054222;28;20041;-62
2023/07/18 14:24:52;;;;;;;4.28;2.17;;;;;;;29.79;35.96;100147.09;5054131;28;20036;-62
2023/07/18 14:27:18;;;;;;;5.78;2.67;;;;;;;29.90;36.28;100145.78;5053829;28;20029;-62
2023/07/18 14:29:43;;;;;;;4.22;2.20;;;;;;;29.92;36.89;100138.06;5053504;28;20037;-62
2023/07/18 14:32:09;;;;;;;3.45;2.50;;;;;;;29.55;36.80;100139.84;5053683;28;20045;-62
2023/07/18 14:34:36;;;;;;;6.32;2.95;;;;;;;29.60;37.63;100136.19;5053795;28;20078;-62
2023/07/18 14:37:02;;;;;;;4.53;2.40;;;;;;;29.50;36.86;100128.13;5053637;28;20060;-61
2023/07/18 14:39:28;;;;;;;6.57;2.97;;;;;;;29.64;37.43;100121.56;5053422;28;20131;-62
2023/07/18 14:41:53;;;;;;;4.45;2.92;;;;;;;29.25;39.18;100100.03;5053634;28;20065;-62
2023/07/18 14:44:18;;;;;;;8.07;3.00;;;;;;;29.32;37.64;100094.16;5053570;28;20047;-62
2023/07/18 14:46:44;;;;;;;4.28;2.55;;;;;;;29.38;39.12;100082.78;5053330;28;20044;-63
2023/07/18 14:49:09;;;;;;;6.80;2.63;;;;;;;29.45;38.35;100077.72;5053205;28;20466;-63
2023/07/18 14:51:35;;;;;;;7.20;2.92;;;;;;;29.50;37.86;100073.25;5053363;28;20056;-63
2023/07/18 14:54:00;;;;;;;6.72;3.08;;;;;;;29.46;36.92;100071.09;5053334;28;20041;-63
2023/07/18 14:56:27;;;;;;;5.15;2.70;;;;;;;29.41;37.11;100079.44;5053200;28;20132;-63
2023/07/18 14:58:53;;;;;;;5.40;2.92;;;;;;;29.34;37.40;100075.44;5053006;28;20048;-62
2023/07/18 15:01:18;;;;;;;4.82;2.83;;;;;;;29.15;36.90;100068.13;5053097;28;20048;-62
2023/07/18 15:03:44;;;;;;;3.63;2.17;;;;;;;29.15;38.08;100061.81;5053138;28;20406;-63
2023/07/18 15:06:09;;;;;;;4.82;2.88;;;;;;;29.22;37.39;100062.25;5052098;28;20414;-61
2023/07/18 15:08:35;;;;;;;7.57;2.80;;;;;;;29.21;37.69;100060.59;5052929;28;20401;-63
2023/07/18 15:11:01;;;;;;;5.78;3.13;;;;;;;29.29;38.07;100057.19;5052898;28;20106;-62
2023/07/18 15:13:26;;;;;;;4.15;2.75;;;;;;;29.27;37.44;100051.16;5052931;28;20040;-62
2023/07/18 15:15:52;;;;;;;5.22;2.88;;;;;;;29.24;37.24;100054.53;5052609;28;20037;-62
2023/07/18 15:18:17;;;;;;;4.75;2.60;;;;;;;29.26;38.24;100063.25;5053094;28;20041;-61
2023/07/18 15:20:43;;;;;;;5.18;2.70;;;;;;;29.05;37.34;100059.25;5053331;28;20056;-61
2023/07/18 15:23:08;;;;;;;6.38;3.13;;;;;;;29.16;38.77;100060.72;5053416;28;20483;-61
2023/07/18 15:25:34;;;;;;;5.85;2.70;;;;;;;29.07;37.59;100062.50;5052036;28;20095;-62
2023/07/18 15:27:59;;;;;;;6.90;2.70;;;;;;;29.04;37.40;100063.91;5053257;28;20029;-62
2023/07/18 15:30:26;;;;;;;4.60;2.63;;;;;;;29.08;37.94;100055.88;5052736;28;20115;-62
2023/07/18 15:32:51;;;;;;;5.95;3.00;;;;;;;28.97;38.03;100062.69;5053068;28;20444;-62
2023/07/18 15:35:17;;;;;;;5.13;2.63;;;;;;;28.90;38.74;100060.28;5052588;28;20040;-63
2023/07/18 15:37:42;;;;;;;4.60;2.67;;;;;;;28.74;37.82;100056.16;5053305;28;20044;-63
2023/07/18 15:40:09;;;;;;;6.22;2.67;;;;;;;28.72;38.12;100052.91;5052325;28;20032;-63
2023/07/18 15:42:34;;;;;;;5.82;2.50;;;;;;;28.59;38.83;100046.25;5052448;28;20036;-62